Time;durP1;ratioP1;P1;durP2;ratioP2;P2;SDS_P1;SDS_P2;PMS_P1;PMS_P2;Temp;Humidity;BMP_temperature;BMP_pressure;BME280_temperature;BME280_humidity;BME280_pressure;Samples;Min_cycle;Max_cycle;Signal;HPM_P1;HPM_P2
2021/08/09 00:01:15;;;;;;;;;;;;;;;;;;4581243;27;19922;-72
2021/08/09 00:03:25;;;;;;;;;;;;;;;;;;4581782;27;19915;-72
2021/08/09 00:05:36;;;;;;;;;;;;;;;;;;4581016;27;19982;-72
2021/08/09 00:07:46;;;;;;;;;;;;;;;;;;4583299;27;20315;-72
2021/08/09 00:09:56;;;;;;;;;;;;;;;;;;4578306;27;20555;-72
2021/08/09 00:12:07;;;;;;;;;;;;;;;;;;4578702;27;19916;-72
2021/08/09 00:14:17;;;;;;;;;;;;;;;;;;4578881;27;19916;-71
2021/08/09 00:16:27;;;;;;;;;;;;;;;;;;4583654;27;19939;-71
2021/08/09 00:18:41;;;;;;;;;;;;;;;;;;4582451;27;19916;-71
2021/08/09 00:20:52;;;;;;;;;;;;;;;;;;4580138;27;19912;-71
2021/08/09 00:23:03;;;;;;;;;;;;;;;;;;4582317;27;20397;-71
2021/08/09 00:25:13;;;;;;;;;;;;;;;;;;4579232;27;20273;-70
2021/08/09 00:27:23;;;;;;;;;;;;;;;;;;4582366;27;19916;-71
2021/08/09 00:29:33;;;;;;;;;;;;;;;;;;4582500;27;20012;-71
2021/08/09 00:31:44;;;;;;;;;;;;;;;;;;4556140;27;19917;-71
2021/08/09 00:33:54;;;;;;;;;;;;;;;;;;4581550;27;19916;-71
2021/08/09 00:36:05;;;;;;;;;;;;;;;;;;4582369;27;19915;-71
2021/08/09 00:38:19;;;;;;;;;;;;;;;;;;4580772;27;19919;-71
2021/08/09 00:40:30;;;;;;;;;;;;;;;;;;4563577;27;19924;-71
2021/08/09 00:42:41;;;;;;;;;;;;;;;;;;4580355;27;19939;-71
2021/08/09 00:44:52;;;;;;;;;;;;;;;;;;4581549;27;19947;-71
2021/08/09 00:47:03;;;;;;;;;;;;;;;;;;4581436;27;19946;-71
2021/08/09 00:49:14;;;;;;;;;;;;;;;;;;4582070;27;20489;-71
2021/08/09 00:51:24;;;;;;;;;;;;;;;;;;4582250;27;19915;-71
2021/08/09 00:53:38;;;;;;;;;;;;;;;;;;4564377;27;19989;-71
2021/08/09 00:55:51;;;;;;;;;;;;;;;;;;4564057;27;20362;-72
2021/08/09 00:58:02;;;;;;;;;;;;;;;;;;4581843;27;19920;-71
2021/08/09 01:00:15;;;;;;;;;;;;;;;;;;4568018;27;19981;-71
2021/08/09 01:02:28;;;;;;;;;;;;;;;;;;4581958;27;19916;-72
2021/08/09 01:04:40;;;;;;;;;;;;;;;;;;4580866;27;19993;-72
2021/08/09 01:06:50;;;;;;;;;;;;;;;;;;4585199;27;19962;-71
2021/08/09 01:09:01;;;;;;;;;;;;;;;;;;4580973;27;19970;-71
2021/08/09 01:11:19;;;;;;;;;;;;;;;;;;4581792;27;19927;-71
2021/08/09 01:13:50;;;;;;;;;;;;;;;;;;4565747;27;19912;-71
2021/08/09 01:16:02;;;;;;;;;;;;;;;;;;4553886;27;19927;-71
2021/08/09 01:18:12;;;;;;;;;;;;;;;;;;4579100;27;19916;-72
2021/08/09 01:20:27;;;;;;;;;;;;;;;;;;4579522;27;20281;-71
2021/08/09 01:22:37;;;;;;;;;;;;;;;;;;4579459;27;19942;-71
2021/08/09 01:24:48;;;;;;;;;;;;;;;;;;4581554;27;19998;-71
2021/08/09 01:27:18;;;;;;;;;;;;;;;;;;4580463;27;19912;-71
2021/08/09 01:29:47;;;;;;;;;;;;;;;;;;4562055;27;20450;-72
2021/08/09 01:31:58;;;;;;;;;;;;;;;;;;4544916;27;19960;-71
2021/08/09 01:34:09;;;;;;;;;;;;;;;;;;4580852;27;20006;-71
2021/08/09 01:36:20;;;;;;;;;;;;;;;;;;4561885;27;19967;-71
2021/08/09 01:38:31;;;;;;;;;;;;;;;;;;4564903;27;19916;-72
2021/08/09 01:40:43;;;;;;;;;;;;;;;;;;4579961;27;20364;-71
2021/08/09 01:42:53;;;;;;;;;;;;;;;;;;4563488;27;19912;-71
2021/08/09 01:45:05;;;;;;;;;;;;;;;;;;4568332;27;20534;-73
2021/08/09 01:47:16;;;;;;;;;;;;;;;;;;4579532;27;20237;-73
2021/08/09 01:49:26;;;;;;;;;;;;;;;;;;4564222;27;19920;-71
2021/08/09 01:51:39;;;;;;;;;;;;;;;;;;4562312;27;20022;-71
2021/08/09 01:53:53;;;;;;;;;;;;;;;;;;4580370;27;19920;-70
2021/08/09 01:56:04;;;;;;;;;;;;;;;;;;4562163;28;19930;-70
2021/08/09 01:58:15;;;;;;;;;;;;;;;;;;4580430;27;19919;-71
2021/08/09 02:00:28;;;;;;;;;;;;;;;;;;4566394;27;19922;-70
2021/08/09 02:02:39;;;;;;;;;;;;;;;;;;4583862;27;20014;-71
2021/08/09 02:04:49;;;;;;;;;;;;;;;;;;4578624;27;20010;-71
2021/08/09 02:07:00;;;;;;;;;;;;;;;;;;4565886;27;19923;-71
2021/08/09 02:09:10;;;;;;;;;;;;;;;;;;4582092;27;20010;-71
2021/08/09 02:11:24;;;;;;;;;;;;;;;;;;4581304;27;19919;-71
2021/08/09 02:13:37;;;;;;;;;;;;;;;;;;4580116;27;20483;-71
2021/08/09 02:16:13;;;;;;;;;;;;;;;;;;4579007;27;19973;-70
2021/08/09 02:18:46;;;;;;;;;;;;;;;;;;4582836;27;19923;-70
2021/08/09 02:20:58;;;;;;;;;;;;;;;;;;4580286;27;20555;-70
2021/08/09 02:23:11;;;;;;;;;;;;;;;;;;4579849;27;19919;-71
2021/08/09 02:25:22;;;;;;;;;;;;;;;;;;4579521;27;20001;-70
2021/08/09 02:27:34;;;;;;;;;;;;;;;;;;4579314;27;19923;-70
2021/08/09 02:29:45;;;;;;;;;;;;;;;;;;4579424;27;19923;-71
2021/08/09 02:31:56;;;;;;;;;;;;;;;;;;4562126;28;19912;-70
2021/08/09 02:34:07;;;;;;;;;;;;;;;;;;4578424;27;19916;-70
2021/08/09 02:36:17;;;;;;;;;;;;;;;;;;4561664;27;20794;-71
2021/08/09 02:38:28;;;;;;;;;;;;;;;;;;4578448;27;19927;-70
2021/08/09 02:40:38;;;;;;;;;;;;;;;;;;4577269;27;20422;-70
2021/08/09 02:42:48;;;;;;;;;;;;;;;;;;4562299;27;19920;-70
2021/08/09 02:45:00;;;;;;;;;;;;;;;;;;4563289;27;20304;-70
2021/08/09 02:47:11;;;;;;;;;;;;;;;;;;4569068;27;19916;-70
2021/08/09 02:49:21;;;;;;;;;;;;;;;;;;4576276;27;20381;-70
2021/08/09 02:51:32;;;;;;;;;;;;;;;;;;4580203;27;19915;-71
2021/08/09 02:53:42;;;;;;;;;;;;;;;;;;4579223;27;19955;-71
2021/08/09 02:55:54;;;;;;;;;;;;;;;;;;4579190;27;19954;-71
2021/08/09 02:58:07;;;;;;;;;;;;;;;;;;4579194;27;20001;-71
2021/08/09 03:00:18;;;;;;;;;;;;;;;;;;4579477;27;19964;-71
2021/08/09 03:02:29;;;;;;;;;;;;;;;;;;4580778;27;20015;-71
2021/08/09 03:04:40;;;;;;;;;;;;;;;;;;4578866;27;19915;-71
2021/08/09 03:06:50;;;;;;;;;;;;;;;;;;4577117;27;19916;-71
2021/08/09 03:09:03;;;;;;;;;;;;;;;;;;4561671;27;19920;-71
2021/08/09 03:11:15;;;;;;;;;;;;;;;;;;4565790;27;19928;-71
2021/08/09 03:13:25;;;;;;;;;;;;;;;;;;4582380;27;20304;-71
2021/08/09 03:15:37;;;;;;;;;;;;;;;;;;4554199;27;19916;-71
2021/08/09 03:17:48;;;;;;;;;;;;;;;;;;4586035;27;19916;-71
2021/08/09 03:19:58;;;;;;;;;;;;;;;;;;4571658;27;20503;-71
2021/08/09 03:22:12;;;;;;;;;;;;;;;;;;4569332;28;19920;-72
2021/08/09 03:24:23;;;;;;;;;;;;;;;;;;4583328;27;19949;-71
2021/08/09 03:26:33;;;;;;;;;;;;;;;;;;4562841;27;19916;-71
2021/08/09 03:28:43;;;;;;;;;;;;;;;;;;4580539;27;19924;-71
2021/08/09 03:30:54;;;;;;;;;;;;;;;;;;4570478;27;19918;-71
2021/08/09 03:33:05;;;;;;;;;;;;;;;;;;4579975;27;19916;-71
2021/08/09 03:35:17;;;;;;;;;;;;;;;;;;4581113;27;19947;-71
2021/08/09 03:37:27;;;;;;;;;;;;;;;;;;4583646;27;20422;-71
2021/08/09 03:39:37;;;;;;;;;;;;;;;;;;4565808;27;19916;-71
2021/08/09 03:41:48;;;;;;;;;;;;;;;;;;4580817;27;19916;-71
2021/08/09 03:43:58;;;;;;;;;;;;;;;;;;4581293;27;19966;-71
2021/08/09 03:46:10;;;;;;;;;;;;;;;;;;4581556;27;19968;-71
2021/08/09 03:48:20;;;;;;;;;;;;;;;;;;4582846;27;19912;-72
2021/08/09 03:50:31;;;;;;;;;;;;;;;;;;4581537;27;20681;-72
2021/08/09 03:52:45;;;;;;;;;;;;;;;;;;4581767;27;19947;-71
2021/08/09 03:54:56;;;;;;;;;;;;;;;;;;4581920;27;19916;-71
2021/08/09 03:57:06;;;;;;;;;;;;;;;;;;4585091;27;20363;-72
2021/08/09 03:59:16;;;;;;;;;;;;;;;;;;4581492;27;19927;-72
2021/08/09 04:01:27;;;;;;;;;;;;;;;;;;4581486;27;19916;-71
2021/08/09 04:03:37;;;;;;;;;;;;;;;;;;4567574;27;20357;-72
2021/08/09 04:05:48;;;;;;;;;;;;;;;;;;4582906;27;19911;-71
2021/08/09 04:07:59;;;;;;;;;;;;;;;;;;4582432;27;19919;-72
2021/08/09 04:10:09;;;;;;;;;;;;;;;;;;4581219;27;19997;-72
2021/08/09 04:12:20;;;;;;;;;;;;;;;;;;4584160;27;19959;-72
2021/08/09 04:14:30;;;;;;;;;;;;;;;;;;4582311;27;19951;-72
2021/08/09 04:16:42;;;;;;;;;;;;;;;;;;4582407;27;20431;-72
2021/08/09 04:18:54;;;;;;;;;;;;;;;;;;4584418;27;19916;-72
2021/08/09 04:21:04;;;;;;;;;;;;;;;;;;4580266;27;19916;-72
2021/08/09 04:23:14;;;;;;;;;;;;;;;;;;4581977;27;19938;-72
2021/08/09 04:25:27;;;;;;;;;;;;;;;;;;4581976;27;19919;-72
2021/08/09 04:27:38;;;;;;;;;;;;;;;;;;4582498;27;19926;-72
2021/08/09 04:29:48;;;;;;;;;;;;;;;;;;4582138;27;19927;-72
2021/08/09 04:31:59;;;;;;;;;;;;;;;;;;4579585;27;19997;-72
2021/08/09 04:34:09;;;;;;;;;;;;;;;;;;4580694;27;19919;-72
2021/08/09 04:36:20;;;;;;;;;;;;;;;;;;4572093;27;19959;-72
2021/08/09 04:38:31;;;;;;;;;;;;;;;;;;4581443;27;20554;-72
2021/08/09 04:40:42;;;;;;;;;;;;;;;;;;4582937;27;20635;-72
2021/08/09 04:42:52;;;;;;;;;;;;;;;;;;4582626;27;19911;-72
2021/08/09 04:45:05;;;;;;;;;;;;;;;;;;4582113;27;19916;-74
2021/08/09 04:47:16;;;;;;;;;;;;;;;;;;4566824;27;19919;-73
2021/08/09 04:49:27;;;;;;;;;;;;;;;;;;4567029;27;19920;-73
2021/08/09 04:51:37;;;;;;;;;;;;;;;;;;4562976;27;19920;-73
2021/08/09 04:53:47;;;;;;;;;;;;;;;;;;4581617;27;19915;-73
2021/08/09 04:56:01;;;;;;;;;;;;;;;;;;4580299;27;19911;-73
2021/08/09 04:58:15;;;;;;;;;;;;;;;;;;4580824;27;19920;-73
2021/08/09 05:00:26;;;;;;;;;;;;;;;;;;4580128;27;20286;-73
2021/08/09 05:02:37;;;;;;;;;;;;;;;;;;4582067;27;20351;-73
2021/08/09 05:04:48;;;;;;;;;;;;;;;;;;4579104;27;19920;-73
2021/08/09 05:06:59;;;;;;;;;;;;;;;;;;4562443;27;19917;-73
2021/08/09 05:09:09;;;;;;;;;;;;;;;;;;4579201;27;19946;-73
2021/08/09 05:11:20;;;;;;;;;;;;;;;;;;4578885;27;20291;-74
2021/08/09 05:13:30;;;;;;;;;;;;;;;;;;4579291;27;19916;-73
2021/08/09 05:15:41;;;;;;;;;;;;;;;;;;4580198;27;20019;-73
2021/08/09 05:17:51;;;;;;;;;;;;;;;;;;4580407;27;20296;-73
2021/08/09 05:20:01;;;;;;;;;;;;;;;;;;4582795;27;19959;-73
2021/08/09 05:22:12;;;;;;;;;;;;;;;;;;4579072;27;19920;-73
2021/08/09 05:24:22;;;;;;;;;;;;;;;;;;4578879;27;19915;-73
2021/08/09 05:26:32;;;;;;;;;;;;;;;;;;4581411;27;19923;-73
2021/08/09 05:28:43;;;;;;;;;;;;;;;;;;4579785;27;19931;-73
2021/08/09 05:30:53;;;;;;;;;;;;;;;;;;4579870;27;19916;-73
2021/08/09 05:33:04;;;;;;;;;;;;;;;;;;4579600;27;19919;-72
2021/08/09 05:35:14;;;;;;;;;;;;;;;;;;4578494;27;20252;-73
2021/08/09 05:37:26;;;;;;;;;;;;;;;;;;4580081;27;19916;-73
2021/08/09 05:39:38;;;;;;;;;;;;;;;;;;4578509;27;19987;-73
2021/08/09 05:41:48;;;;;;;;;;;;;;;;;;4563296;27;19983;-73
2021/08/09 05:43:58;;;;;;;;;;;;;;;;;;4578683;27;20003;-73
2021/08/09 05:46:09;;;;;;;;;;;;;;;;;;4583916;27;20392;-73
2021/08/09 05:48:20;;;;;;;;;;;;;;;;;;4580227;27;19919;-73
2021/08/09 05:50:32;;;;;;;;;;;;;;;;;;4580173;27;19945;-73
2021/08/09 05:52:50;;;;;;;;;;;;;;;;;;4565490;27;19917;-73
2021/08/09 05:55:02;;;;;;;;;;;;;;;;;;4581155;27;20183;-73
2021/08/09 05:57:12;;;;;;;;;;;;;;;;;;4582931;27;19924;-73
2021/08/09 05:59:23;;;;;;;;;;;;;;;;;;4578816;27;19915;-73
2021/08/09 06:01:34;;;;;;;;;;;;;;;;;;4579737;27;19965;-71
2021/08/09 06:03:44;;;;;;;;;;;;;;;;;;4578057;27;19919;-71
2021/08/09 06:05:54;;;;;;;;;;;;;;;;;;4578987;27;19960;-70
2021/08/09 06:08:09;;;;;;;;;;;;;;;;;;4578825;27;19915;-71
2021/08/09 06:10:21;;;;;;;;;;;;;;;;;;4581059;27;19920;-70
2021/08/09 06:12:33;;;;;;;;;;;;;;;;;;4554330;27;20706;-70
2021/08/09 06:14:44;;;;;;;;;;;;;;;;;;4580491;27;20736;-70
2021/08/09 06:16:55;;;;;;;;;;;;;;;;;;4578852;27;19990;-71
2021/08/09 06:19:08;;;;;;;;;;;;;;;;;;4583863;27;20479;-70
2021/08/09 06:21:20;;;;;;;;;;;;;;;;;;4581714;27;19903;-71
2021/08/09 06:23:31;;;;;;;;;;;;;;;;;;4581548;27;19919;-70
2021/08/09 06:25:43;;;;;;;;;;;;;;;;;;4564367;27;19938;-70
2021/08/09 06:27:54;;;;;;;;;;;;;;;;;;4582289;27;20010;-70
2021/08/09 06:30:04;;;;;;;;;;;;;;;;;;4581936;27;19926;-71
2021/08/09 06:32:17;;;;;;;;;;;;;;;;;;4585229;27;19915;-70
2021/08/09 06:34:27;;;;;;;;;;;;;;;;;;4579495;27;19924;-70
2021/08/09 06:36:38;;;;;;;;;;;;;;;;;;4567172;28;20006;-70
2021/08/09 06:38:50;;;;;;;;;;;;;;;;;;4595197;27;20014;-70
2021/08/09 06:41:00;;;;;;;;;;;;;;;;;;4578333;27;20032;-70
2021/08/09 06:43:14;;;;;;;;;;;;;;;;;;4579719;27;19920;-70
2021/08/09 06:45:31;;;;;;;;;;;;;;;;;;4567485;27;19943;-70
2021/08/09 06:47:42;;;;;;;;;;;;;;;;;;4583928;27;19919;-70
2021/08/09 06:49:52;;;;;;;;;;;;;;;;;;4553987;27;19971;-71
2021/08/09 06:52:04;;;;;;;;;;;;;;;;;;4584783;27;19904;-70
2021/08/09 06:54:15;;;;;;;;;;;;;;;;;;4584620;27;20494;-69
2021/08/09 06:56:29;;;;;;;;;;;;;;;;;;4567374;27;20682;-69
2021/08/09 06:58:39;;;;;;;;;;;;;;;;;;4584786;27;19916;-70
2021/08/09 07:00:50;;;;;;;;;;;;;;;;;;4582930;27;19923;-70
2021/08/09 07:03:07;;;;;;;;;;;;;;;;;;4580632;27;20010;-70
2021/08/09 07:05:17;;;;;;;;;;;;;;;;;;4581698;27;19912;-70
2021/08/09 07:07:33;;;;;;;;;;;;;;;;;;4582816;27;20526;-70
2021/08/09 07:09:46;;;;;;;;;;;;;;;;;;4582696;27;19931;-70
2021/08/09 07:11:57;;;;;;;;;;;;;;;;;;4596990;27;20417;-70
2021/08/09 07:14:07;;;;;;;;;;;;;;;;;;4566274;28;20466;-70
2021/08/09 07:16:23;;;;;;;;;;;;;;;;;;4582838;27;19946;-70
2021/08/09 07:18:34;;;;;;;;;;;;;;;;;;4581603;27;19912;-70
2021/08/09 07:20:44;;;;;;;;;;;;;;;;;;4582925;27;19919;-70
2021/08/09 07:22:55;;;;;;;;;;;;;;;;;;4581880;27;19915;-70
2021/08/09 07:25:06;;;;;;;;;;;;;;;;;;4583677;27;19963;-70
2021/08/09 07:27:17;;;;;;;;;;;;;;;;;;4583839;27;20458;-70
2021/08/09 07:29:29;;;;;;;;;;;;;;;;;;4581355;27;19924;-70
2021/08/09 07:31:40;;;;;;;;;;;;;;;;;;4579337;27;19916;-70
2021/08/09 07:33:50;;;;;;;;;;;;;;;;;;4548154;27;20293;-70
2021/08/09 07:36:04;;;;;;;;;;;;;;;;;;4565386;27;19912;-69
2021/08/09 07:38:15;;;;;;;;;;;;;;;;;;4563558;27;19923;-69
2021/08/09 07:40:25;;;;;;;;;;;;;;;;;;4580604;27;19927;-70
2021/08/09 07:42:41;;;;;;;;;;;;;;;;;;4581466;27;19912;-70
2021/08/09 07:44:52;;;;;;;;;;;;;;;;;;4581667;27;20301;-70
2021/08/09 07:47:03;;;;;;;;;;;;;;;;;;4581544;27;19923;-70
2021/08/09 07:49:13;;;;;;;;;;;;;;;;;;4580941;27;20662;-70
2021/08/09 07:51:23;;;;;;;;;;;;;;;;;;4582765;27;19916;-69
2021/08/09 07:53:34;;;;;;;;;;;;;;;;;;4567161;27;19970;-69
2021/08/09 07:55:44;;;;;;;;;;;;;;;;;;4582368;27;19915;-70
2021/08/09 07:57:55;;;;;;;;;;;;;;;;;;4579904;27;20495;-69
2021/08/09 08:00:05;;;;;;;;;;;;;;;;;;4581516;27;19915;-69
2021/08/09 08:02:25;;;;;;;;;;;;;;;;;;4579468;27;19916;-70
2021/08/09 08:04:36;;;;;;;;;;;;;;;;;;4581459;27;19930;-70
2021/08/09 08:06:47;;;;;;;;;;;;;;;;;;4568458;27;19958;-70
2021/08/09 08:08:58;;;;;;;;;;;;;;;;;;4580282;27;20455;-71
2021/08/09 08:11:08;;;;;;;;;;;;;;;;;;4583281;27;19916;-71
2021/08/09 08:13:20;;;;;;;;;;;;;;;;;;4579620;27;20506;-70
2021/08/09 08:15:30;;;;;;;;;;;;;;;;;;4581350;27;19966;-71
2021/08/09 08:17:40;;;;;;;;;;;;;;;;;;4582477;27;19912;-71
2021/08/09 08:19:51;;;;;;;;;;;;;;;;;;4581240;27;20017;-72
2021/08/09 08:22:02;;;;;;;;;;;;;;;;;;4582966;27;19920;-69
2021/08/09 08:24:15;;;;;;;;;;;;;;;;;;4566072;27;19987;-69
2021/08/09 08:26:26;;;;;;;;;;;;;;;;;;4580984;27;19927;-69
2021/08/09 08:28:38;;;;;;;;;;;;;;;;;;4581449;27;19915;-69
2021/08/09 08:30:51;;;;;;;;;;;;;;;;;;4581384;27;19922;-69
2021/08/09 08:33:02;;;;;;;;;;;;;;;;;;4580619;27;19927;-69
2021/08/09 08:35:12;;;;;;;;;;;;;;;;;;4580211;27;19919;-69
2021/08/09 08:37:23;;;;;;;;;;;;;;;;;;4582677;27;20238;-69
2021/08/09 08:39:33;;;;;;;;;;;;;;;;;;4581935;27;20461;-69
2021/08/09 08:41:44;;;;;;;;;;;;;;;;;;4581973;27;19976;-69
2021/08/09 08:43:56;;;;;;;;;;;;;;;;;;4581712;27;19923;-69
2021/08/09 08:46:09;;;;;;;;;;;;;;;;;;4569938;27;19927;-70
2021/08/09 08:48:24;;;;;;;;;;;;;;;;;;4565982;27;20006;-69
2021/08/09 08:50:34;;;;;;;;;;;;;;;;;;4580329;27;20482;-69
2021/08/09 08:52:47;;;;;;;;;;;;;;;;;;4581842;27;19916;-69
2021/08/09 08:54:58;;;;;;;;;;;;;;;;;;4602370;27;20026;-69
2021/08/09 08:57:15;;;;;;;;;;;;;;;;;;4581139;27;20015;-69
2021/08/09 08:59:26;;;;;;;;;;;;;;;;;;4581837;27;19939;-68
2021/08/09 09:01:37;;;;;;;;;;;;;;;;;;4582823;27;22688;-69
2021/08/09 09:03:47;;;;;;;;;;;;;;;;;;4582001;27;19920;-69
2021/08/09 09:05:59;;;;;;;;;;;;;;;;;;4581212;27;20833;-69
2021/08/09 09:08:09;;;;;;;;;;;;;;;;;;4581857;27;19920;-69
2021/08/09 09:10:21;;;;;;;;;;;;;;;;;;4579987;27;19924;-69
2021/08/09 09:12:32;;;;;;;;;;;;;;;;;;4597300;27;20830;-71
2021/08/09 09:14:42;;;;;;;;;;;;;;;;;;4580099;27;19974;-71
2021/08/09 09:16:53;;;;;;;;;;;;;;;;;;4580714;27;19996;-72
2021/08/09 09:19:03;;;;;;;;;;;;;;;;;;4580862;27;19916;-71
2021/08/09 09:21:23;;;;;;;;;;;;;;;;;;4581932;27;20451;-72
2021/08/09 09:23:33;;;;;;;;;;;;;;;;;;4581343;27;20559;-71
2021/08/09 09:25:44;;;;;;;;;;;;;;;;;;4580056;27;20013;-71
2021/08/09 09:27:54;;;;;;;;;;;;;;;;;;4579611;27;19919;-71
2021/08/09 09:30:23;;;;;;;;;;;;;;;;;;4580779;27;19920;-71
2021/08/09 09:32:34;;;;;;;;;;;;;;;;;;4579247;27;20593;-72
2021/08/09 09:34:46;;;;;;;;;;;;;;;;;;4580234;27;20254;-71
2021/08/09 09:36:57;;;;;;;;;;;;;;;;;;4580025;27;19919;-72
2021/08/09 09:39:07;;;;;;;;;;;;;;;;;;4578382;27;19920;-72
2021/08/09 09:41:19;;;;;;;;;;;;;;;;;;4579728;27;19926;-72
2021/08/09 09:43:36;;;;;;;;;;;;;;;;;;4581374;27;21008;-71
2021/08/09 09:45:50;;;;;;;;;;;;;;;;;;4579851;27;19920;-72
2021/08/09 09:48:05;;;;;;;;;;;;;;;;;;4577520;27;19970;-72
2021/08/09 09:50:26;;;;;;;;;;;;;;;;;;4577339;27;20010;-72
2021/08/09 09:52:36;;;;;;;;;;;;;;;;;;4579066;27;19916;-71
2021/08/09 09:54:46;;;;;;;;;;;;;;;;;;4581681;27;19916;-72
2021/08/09 09:56:57;;;;;;;;;;;;;;;;;;4583237;27;19920;-72
2021/08/09 09:59:07;;;;;;;;;;;;;;;;;;4582275;27;20522;-71
2021/08/09 10:01:17;;;;;;;;;;;;;;;;;;4580801;27;19972;-72
2021/08/09 10:03:29;;;;;;;;;;;;;;;;;;4564363;27;19927;-71
2021/08/09 10:05:40;;;;;;;;;;;;;;;;;;4582336;27;19916;-71
2021/08/09 10:07:51;;;;;;;;;;;;;;;;;;4579078;27;19911;-71
2021/08/09 10:10:02;;;;;;;;;;;;;;;;;;4577331;27;19924;-71
2021/08/09 10:12:12;;;;;;;;;;;;;;;;;;4578405;27;20224;-72
2021/08/09 10:14:23;;;;;;;;;;;;;;;;;;4561702;27;20356;-71
2021/08/09 10:16:33;;;;;;;;;;;;;;;;;;4579448;27;19917;-71
2021/08/09 10:18:48;;;;;;;;;;;;;;;;;;4579290;27;19916;-71
2021/08/09 10:20:59;;;;;;;;;;;;;;;;;;4580959;27;19919;-71
2021/08/09 10:23:09;;;;;;;;;;;;;;;;;;4578349;27;19915;-71
2021/08/09 10:25:23;;;;;;;;;;;;;;;;;;4581588;27;19962;-71
2021/08/09 10:27:46;;;;;;;;;;;;;;;;;;4582872;27;19927;-71
2021/08/09 10:29:59;;;;;;;;;;;;;;;;;;4582452;27;20378;-71
2021/08/09 10:32:19;;;;;;;;;;;;;;;;;;4568360;27;19923;-71
2021/08/09 10:34:30;;;;;;;;;;;;;;;;;;4568395;27;20300;-71
2021/08/09 10:36:59;;;;;;;;;;;;;;;;;;4585302;27;20474;-71
2021/08/09 10:39:10;;;;;;;;;;;;;;;;;;4582597;27;20082;-71
2021/08/09 10:41:25;;;;;;;;;;;;;;;;;;4581479;27;20018;-71
2021/08/09 10:43:40;;;;;;;;;;;;;;;;;;4584188;27;19916;-71
2021/08/09 10:45:50;;;;;;;;;;;;;;;;;;4570114;27;19924;-70
2021/08/09 10:48:01;;;;;;;;;;;;;;;;;;4583879;27;19916;-71
2021/08/09 10:50:17;;;;;;;;;;;;;;;;;;4583462;27;19967;-72
2021/08/09 10:52:34;;;;;;;;;;;;;;;;;;4582363;27;19970;-69
2021/08/09 10:54:44;;;;;;;;;;;;;;;;;;4555153;27;19912;-68
2021/08/09 10:56:55;;;;;;;;;;;;;;;;;;4583062;27;19916;-71
2021/08/09 10:59:05;;;;;;;;;;;;;;;;;;4547448;27;19990;-71
2021/08/09 11:01:16;;;;;;;;;;;;;;;;;;4582316;27;19911;-71
2021/08/09 11:03:26;;;;;;;;;;;;;;;;;;4581152;27;19963;-71
2021/08/09 11:05:37;;;;;;;;;;;;;;;;;;4566864;27;19920;-71
2021/08/09 11:07:47;;;;;;;;;;;;;;;;;;4581056;27;19920;-71
2021/08/09 11:09:57;;;;;;;;;;;;;;;;;;4579987;27;19922;-71
2021/08/09 11:12:15;;;;;;;;;;;;;;;;;;4581228;27;19923;-71
2021/08/09 11:14:25;;;;;;;;;;;;;;;;;;4581340;27;19919;-72
2021/08/09 11:16:36;;;;;;;;;;;;;;;;;;4582066;27;20385;-72
2021/08/09 11:18:46;;;;;;;;;;;;;;;;;;4583088;27;19912;-71
2021/08/09 11:21:03;;;;;;;;;;;;;;;;;;4581445;27;20464;-71
2021/08/09 11:23:15;;;;;;;;;;;;;;;;;;4581738;27;19959;-72
2021/08/09 11:25:39;;;;;;;;;;;;;;;;;;4583423;27;20455;-71
2021/08/09 11:28:01;;;;;;;;;;;;;;;;;;4580598;27;19919;-72
2021/08/09 11:30:11;;;;;;;;;;;;;;;;;;4582289;27;19916;-72
2021/08/09 11:32:38;;;;;;;;;;;;;;;;;;4583062;27;19916;-71
2021/08/09 11:35:03;;;;;;;;;;;;;;;;;;4583757;27;19920;-71
2021/08/09 11:37:14;;;;;;;;;;;;;;;;;;4582172;27;19913;-72
2021/08/09 11:39:38;;;;;;;;;;;;;;;;;;4583014;27;19915;-72
2021/08/09 11:41:55;;;;;;;;;;;;;;;;;;4584240;27;19916;-71
2021/08/09 11:44:10;;;;;;;;;;;;;;;;;;4581524;27;19930;-72
2021/08/09 11:46:20;;;;;;;;;;;;;;;;;;4582782;27;20523;-72
2021/08/09 11:48:33;;;;;;;;;;;;;;;;;;4579470;27;19912;-72
2021/08/09 11:50:44;;;;;;;;;;;;;;;;;;4581694;27;19926;-71
2021/08/09 11:52:54;;;;;;;;;;;;;;;;;;4581992;27;19920;-72
2021/08/09 11:55:05;;;;;;;;;;;;;;;;;;4582365;27;19916;-71
2021/08/09 11:57:15;;;;;;;;;;;;;;;;;;4565812;27;19943;-71
2021/08/09 11:59:26;;;;;;;;;;;;;;;;;;4581229;27;19924;-71
2021/08/09 12:01:37;;;;;;;;;;;;;;;;;;4581554;27;19939;-71
2021/08/09 12:04:00;;;;;;;;;;;;;;;;;;4581722;27;19916;-71
2021/08/09 12:06:23;;;;;;;;;;;;;;;;;;4582653;27;20479;-71
2021/08/09 12:08:50;;;;;;;;;;;;;;;;;;4579561;27;19916;-71
2021/08/09 12:11:09;;;;;;;;;;;;;;;;;;4580897;27;20478;-71
2021/08/09 12:13:29;;;;;;;;;;;;;;;;;;4583081;27;20699;-71
2021/08/09 12:15:40;;;;;;;;;;;;;;;;;;4581777;27;19950;-72
2021/08/09 12:18:02;;;;;;;;;;;;;;;;;;4578412;27;20065;-71
2021/08/09 12:20:13;;;;;;;;;;;;;;;;;;4578280;27;19915;-71
2021/08/09 12:22:27;;;;;;;;;;;;;;;;;;4580758;27;20891;-71
2021/08/09 12:24:38;;;;;;;;;;;;;;;;;;4582015;27;21097;-71
2021/08/09 12:26:49;;;;;;;;;;;;;;;;;;4579490;27;19916;-72
2021/08/09 12:29:01;;;;;;;;;;;;;;;;;;4580569;27;20511;-71
2021/08/09 12:31:12;;;;;;;;;;;;;;;;;;4583059;27;19915;-71
2021/08/09 12:33:22;;;;;;;;;;;;;;;;;;4582048;27;19916;-72
2021/08/09 12:35:41;;;;;;;;;;;;;;;;;;4582390;27;19920;-72
2021/08/09 12:37:55;;;;;;;;;;;;;;;;;;4583140;27;20367;-72
2021/08/09 12:40:15;;;;;;;;;;;;;;;;;;4580037;27;19923;-71
2021/08/09 12:42:28;;;;;;;;;;;;;;;;;;4565669;27;19920;-72
2021/08/09 12:44:39;;;;;;;;;;;;;;;;;;4580045;27;20269;-71
2021/08/09 12:46:49;;;;;;;;;;;;;;;;;;4581808;27;19912;-72
2021/08/09 12:48:59;;;;;;;;;;;;;;;;;;4580483;27;20560;-72
2021/08/09 12:51:10;;;;;;;;;;;;;;;;;;4580852;27;20063;-71
2021/08/09 12:53:20;;;;;;;;;;;;;;;;;;4580561;27;19920;-72
2021/08/09 12:55:31;;;;;;;;;;;;;;;;;;4579397;27;20369;-71
2021/08/09 12:57:41;;;;;;;;;;;;;;;;;;4580295;27;19916;-71
2021/08/09 12:59:51;;;;;;;;;;;;;;;;;;4578327;27;19986;-72
2021/08/09 13:02:02;;;;;;;;;;;;;;;;;;4578920;27;19923;-72
2021/08/09 13:04:12;;;;;;;;;;;;;;;;;;4578892;27;20356;-71
2021/08/09 13:06:22;;;;;;;;;;;;;;;;;;4579490;27;20006;-71
2021/08/09 13:08:33;;;;;;;;;;;;;;;;;;4582814;27;20236;-71
2021/08/09 13:10:43;;;;;;;;;;;;;;;;;;4578817;27;19920;-72
2021/08/09 13:12:53;;;;;;;;;;;;;;;;;;4580903;27;19961;-71
2021/08/09 13:15:04;;;;;;;;;;;;;;;;;;4578316;27;19970;-71
2021/08/09 13:17:15;;;;;;;;;;;;;;;;;;4579851;27;19920;-72
2021/08/09 13:19:25;;;;;;;;;;;;;;;;;;4581195;27;19915;-71
2021/08/09 13:21:36;;;;;;;;;;;;;;;;;;4578476;27;19927;-71
2021/08/09 13:23:46;;;;;;;;;;;;;;;;;;4577594;27;20020;-70
2021/08/09 13:25:56;;;;;;;;;;;;;;;;;;4579205;27;19939;-71
2021/08/09 13:28:07;;;;;;;;;;;;;;;;;;4578301;27;19920;-71
2021/08/09 13:30:18;;;;;;;;;;;;;;;;;;4580483;27;19924;-71
2021/08/09 13:32:29;;;;;;;;;;;;;;;;;;4579476;27;19916;-71
2021/08/09 13:34:39;;;;;;;;;;;;;;;;;;4582213;27;20391;-71
2021/08/09 13:36:50;;;;;;;;;;;;;;;;;;4580817;27;19916;-71
2021/08/09 13:39:00;;;;;;;;;;;;;;;;;;4581144;27;19915;-71
2021/08/09 13:41:10;;;;;;;;;;;;;;;;;;4579222;27;20378;-70
2021/08/09 13:43:22;;;;;;;;;;;;;;;;;;4579827;27;19969;-71
2021/08/09 13:45:32;;;;;;;;;;;;;;;;;;4578018;27;19916;-71
2021/08/09 13:47:42;;;;;;;;;;;;;;;;;;4580893;27;20300;-71
2021/08/09 13:49:53;;;;;;;;;;;;;;;;;;4579709;27;19993;-71
2021/08/09 13:52:03;;;;;;;;;;;;;;;;;;4577340;27;19994;-71
2021/08/09 13:54:13;;;;;;;;;;;;;;;;;;4577269;27;19950;-71
2021/08/09 13:56:24;;;;;;;;;;;;;;;;;;4582261;27;19916;-70
2021/08/09 13:58:38;;;;;;;;;;;;;;;;;;4578698;27;20280;-71
2021/08/09 14:00:48;;;;;;;;;;;;;;;;;;4575626;27;20089;-70
2021/08/09 14:02:58;;;;;;;;;;;;;;;;;;4578674;27;20019;-71
2021/08/09 14:05:09;;;;;;;;;;;;;;;;;;4561210;27;19943;-71
2021/08/09 14:07:19;;;;;;;;;;;;;;;;;;4576618;27;19912;-71
2021/08/09 14:09:30;;;;;;;;;;;;;;;;;;4578741;27;19920;-71
2021/08/09 14:11:40;;;;;;;;;;;;;;;;;;4579812;27;19920;-70
2021/08/09 14:13:50;;;;;;;;;;;;;;;;;;4580319;27;19915;-71
2021/08/09 14:16:02;;;;;;;;;;;;;;;;;;4580854;27;19974;-71
2021/08/09 14:18:17;;;;;;;;;;;;;;;;;;4580839;27;19916;-71
2021/08/09 14:20:27;;;;;;;;;;;;;;;;;;4582251;27;19978;-71
2021/08/09 14:22:39;;;;;;;;;;;;;;;;;;4579576;27;20438;-71
2021/08/09 14:24:50;;;;;;;;;;;;;;;;;;4564131;28;20587;-68
2021/08/09 14:27:01;;;;;;;;;;;;;;;;;;4579293;27;19958;-70
2021/08/09 14:29:12;;;;;;;;;;;;;;;;;;4578950;27;19923;-69
2021/08/09 14:31:24;;;;;;;;;;;;;;;;;;4563192;27;19920;-69
2021/08/09 14:33:37;;;;;;;;;;;;;;;;;;4578686;27;19916;-69
2021/08/09 14:35:48;;;;;;;;;;;;;;;;;;4578466;27;19996;-68
2021/08/09 14:38:01;;;;;;;;;;;;;;;;;;4563131;27;19919;-69
2021/08/09 14:40:11;;;;;;;;;;;;;;;;;;4579591;27;19930;-69
2021/08/09 14:42:22;;;;;;;;;;;;;;;;;;4582534;27;19923;-69
2021/08/09 14:44:34;;;;;;;;;;;;;;;;;;4561881;27;19959;-68
2021/08/09 14:46:46;;;;;;;;;;;;;;;;;;4582872;27;19922;-67
2021/08/09 14:49:00;;;;;;;;;;;;;;;;;;4579692;27;19985;-68
2021/08/09 14:51:11;;;;;;;;;;;;;;;;;;4578993;27;19922;-68
2021/08/09 14:53:22;;;;;;;;;;;;;;;;;;4562269;27;19927;-68
2021/08/09 14:55:33;;;;;;;;;;;;;;;;;;4577820;27;19923;-66
2021/08/09 14:57:43;;;;;;;;;;;;;;;;;;4578999;27;19959;-68
2021/08/09 14:59:54;;;;;;;;;;;;;;;;;;4580028;27;19916;-67
2021/08/09 15:02:08;;;;;;;;;;;;;;;;;;4562755;27;19998;-68